createdAt,value
2022-10-15T00:00:20.492Z,16.67
2022-10-15T00:02:49.242Z,16.62
2022-10-15T00:05:18.264Z,16.62
2022-10-15T00:07:49.991Z,16.62
2022-10-15T00:10:19.021Z,16.71
2022-10-15T00:12:49.333Z,16.64
2022-10-15T00:15:20.393Z,16.62
2022-10-15T00:17:50.382Z,16.73
2022-10-15T00:20:25.618Z,16.21
2022-10-15T00:22:56.357Z,15.93
2022-10-15T00:25:25.040Z,16.04
2022-10-15T00:27:53.638Z,16.41
2022-10-15T00:30:24.151Z,16.34
2022-10-15T00:32:52.948Z,16.52
2022-10-15T00:35:21.263Z,16.53
2022-10-15T00:37:54.766Z,16.40
2022-10-15T00:40:26.769Z,16.52
2022-10-15T00:42:55.198Z,16.38
2022-10-15T00:45:25.506Z,15.85
2022-10-15T00:47:57.994Z,16.18
2022-10-15T00:50:29.793Z,15.95
2022-10-15T00:53:05.323Z,15.69
2022-10-15T00:55:37.165Z,15.86
2022-10-15T01:00:43.851Z,16.00
2022-10-15T01:03:13.865Z,15.65
2022-10-15T01:05:45.079Z,15.78
2022-10-15T01:08:13.418Z,15.83
2022-10-15T01:10:57.194Z,15.78
2022-10-15T01:13:37.221Z,15.78
2022-10-15T01:16:15.660Z,15.70
2022-10-15T01:18:54.958Z,15.51
2022-10-15T01:21:37.899Z,15.64
2022-10-15T01:24:51.640Z,15.63
2022-10-15T01:27:40.191Z,15.56
2022-10-15T01:30:33.386Z,15.74
2022-10-15T01:33:36.008Z,15.70
2022-10-15T01:36:19.776Z,15.54
2022-10-15T01:38:57.233Z,15.36
2022-10-15T01:41:36.599Z,15.69
2022-10-15T01:44:10.610Z,15.10
2022-10-15T01:46:50.601Z,15.38
2022-10-15T01:49:26.367Z,15.33
2022-10-15T01:52:00.298Z,15.39
2022-10-15T01:54:33.316Z,15.30
2022-10-15T01:57:05.107Z,15.11
2022-10-15T01:59:38.344Z,15.54
2022-10-15T02:02:09.991Z,15.75
2022-10-15T02:04:40.237Z,15.60
2022-10-15T02:07:14.415Z,15.29
2022-10-15T02:09:52.964Z,15.70
2022-10-15T02:12:52.859Z,15.63
2022-10-15T02:15:35.799Z,15.83
2022-10-15T02:18:11.998Z,15.64
2022-10-15T02:20:51.171Z,15.91
2022-10-15T02:23:23.119Z,15.80
2022-10-15T02:25:54.019Z,15.80
2022-10-15T02:28:26.342Z,15.35
2022-10-15T02:30:58.890Z,15.69
2022-10-15T02:33:32.111Z,15.47
2022-10-15T02:36:02.417Z,15.83
2022-10-15T02:38:34.679Z,15.79
2022-10-15T02:41:03.671Z,15.90
2022-10-15T02:43:32.825Z,15.93
2022-10-15T02:46:03.465Z,15.71
2022-10-15T02:48:34.366Z,16.04
2022-10-15T02:51:05.495Z,16.08
2022-10-15T02:53:35.707Z,16.18
2022-10-15T02:56:04.870Z,15.73
2022-10-15T02:58:35.046Z,15.84
2022-10-15T03:01:03.836Z,16.13
2022-10-15T03:03:34.164Z,16.27
2022-10-15T03:06:03.540Z,16.37
2022-10-15T03:08:33.242Z,16.27
2022-10-15T03:11:02.958Z,16.04
2022-10-15T03:13:36.889Z,16.14
2022-10-15T03:16:07.549Z,16.04
2022-10-15T03:18:40.830Z,15.83
2022-10-15T03:21:14.786Z,16.01
2022-10-15T03:23:43.643Z,15.97
2022-10-15T03:26:12.788Z,15.91
2022-10-15T03:28:41.781Z,16.19
2022-10-15T03:31:13.634Z,15.81
2022-10-15T03:33:46.681Z,15.79
2022-10-15T03:36:16.560Z,16.02
2022-10-15T03:38:45.478Z,15.81
2022-10-15T03:41:14.035Z,15.74
2022-10-15T03:43:43.162Z,15.85
2022-10-15T03:46:12.277Z,15.56
2022-10-15T03:48:42.629Z,15.66
2022-10-15T03:51:11.109Z,15.65
2022-10-15T03:53:40.406Z,15.43
2022-10-15T03:56:09.341Z,15.46
2022-10-15T03:58:38.177Z,15.16
2022-10-15T04:01:11.155Z,14.94
2022-10-15T04:03:41.364Z,15.39
2022-10-15T04:06:12.959Z,15.06
2022-10-15T04:08:42.382Z,15.39
2022-10-15T04:11:11.358Z,15.56
2022-10-15T04:13:40.202Z,15.32
2022-10-15T04:16:11.924Z,15.42
2022-10-15T04:18:40.382Z,15.41
2022-10-15T04:21:11.495Z,15.38
2022-10-15T04:23:40.332Z,15.19
2022-10-15T04:26:09.055Z,15.21
2022-10-15T04:28:39.453Z,15.04
2022-10-15T04:31:08.431Z,15.28
2022-10-15T04:33:37.793Z,15.27
2022-10-15T04:36:09.548Z,15.41
2022-10-15T04:38:39.363Z,15.43
2022-10-15T04:41:10.109Z,15.61
2022-10-15T04:43:41.023Z,15.78
2022-10-15T04:46:14.321Z,15.76
2022-10-15T04:48:44.026Z,15.46
2022-10-15T04:51:17.522Z,15.49
2022-10-15T04:53:48.340Z,15.64
2022-10-15T04:56:23.949Z,15.46
2022-10-15T04:58:53.451Z,15.41
2022-10-15T05:01:23.636Z,15.49
2022-10-15T05:03:52.514Z,15.42
2022-10-15T05:06:24.112Z,15.42
2022-10-15T05:08:54.683Z,15.63
2022-10-15T05:11:25.465Z,15.34
2022-10-15T05:13:56.462Z,15.72
2022-10-15T05:16:29.485Z,15.75
2022-10-15T05:19:01.115Z,15.60
2022-10-15T05:21:36.409Z,15.86
2022-10-15T05:24:08.239Z,15.89
2022-10-15T05:26:37.200Z,16.02
2022-10-15T05:29:07.259Z,16.13
2022-10-15T05:31:36.122Z,15.98
2022-10-15T05:34:11.580Z,16.08
2022-10-15T05:36:42.341Z,15.83
2022-10-15T05:39:14.306Z,15.78
2022-10-15T05:41:42.724Z,15.67
2022-10-15T05:44:13.241Z,15.83
2022-10-15T05:46:42.876Z,16.22
2022-10-15T05:49:13.496Z,16.08
2022-10-15T05:51:44.423Z,15.76
2022-10-15T05:54:14.862Z,16.18
2022-10-15T05:56:43.322Z,16.36
2022-10-15T05:59:12.272Z,15.93
2022-10-15T06:01:42.985Z,16.29
2022-10-15T06:04:12.455Z,16.36
2022-10-15T06:06:43.049Z,16.00
2022-10-15T06:09:13.330Z,15.94
2022-10-15T06:11:42.343Z,15.79
2022-10-15T06:14:11.553Z,16.22
2022-10-15T06:16:41.201Z,16.22
2022-10-15T06:19:10.421Z,16.24
2022-10-15T06:21:41.332Z,15.98
2022-10-15T06:24:10.429Z,16.21
2022-10-15T06:26:40.867Z,16.66
2022-10-15T06:29:09.743Z,16.44
2022-10-15T06:31:38.148Z,16.77
2022-10-15T06:34:06.524Z,16.47
2022-10-15T06:36:37.062Z,16.54
2022-10-15T06:39:05.603Z,16.68
2022-10-15T06:41:35.340Z,16.55
2022-10-15T06:44:08.575Z,16.39
2022-10-15T06:46:38.898Z,16.31
2022-10-15T06:49:09.577Z,16.82
2022-10-15T06:51:38.478Z,16.37
2022-10-15T06:54:07.132Z,16.18
2022-10-15T06:56:38.580Z,16.13
2022-10-15T06:59:09.434Z,15.95
2022-10-15T07:01:41.387Z,16.47
2022-10-15T07:04:11.802Z,15.95
2022-10-15T07:06:42.044Z,16.25
2022-10-15T07:09:10.769Z,16.38
2022-10-15T07:11:39.460Z,16.22
2022-10-15T07:14:14.257Z,16.08
2022-10-15T07:16:43.153Z,16.01
2022-10-15T07:19:11.906Z,16.40
2022-10-15T07:21:41.234Z,16.21
2022-10-15T07:24:09.855Z,16.49
2022-10-15T07:26:39.088Z,16.62
2022-10-15T07:29:08.106Z,16.74
2022-10-15T07:31:40.500Z,16.61
2022-10-15T07:34:09.583Z,16.73
2022-10-15T07:36:38.541Z,16.33
2022-10-15T07:39:09.186Z,16.60
2022-10-15T07:41:37.853Z,16.63
2022-10-15T07:44:08.273Z,16.84
2022-10-15T07:46:39.741Z,16.90
2022-10-15T07:49:09.502Z,16.78
2022-10-15T07:51:38.335Z,16.76
2022-10-15T07:54:07.178Z,16.79
2022-10-15T07:56:35.922Z,17.01
2022-10-15T07:59:04.924Z,17.26
2022-10-15T08:01:35.465Z,17.18
2022-10-15T08:04:07.596Z,17.18
2022-10-15T08:06:36.601Z,16.99
2022-10-15T08:09:07.663Z,17.08
2022-10-15T08:11:36.016Z,17.00
2022-10-15T08:14:04.692Z,17.16
2022-10-15T08:16:34.619Z,17.18
2022-10-15T08:19:08.165Z,17.45
2022-10-15T08:21:36.502Z,17.38
2022-10-15T08:24:06.133Z,17.10
2022-10-15T08:26:36.678Z,17.01
2022-10-15T08:29:14.029Z,17.22
2022-10-15T08:31:42.807Z,16.96
2022-10-15T08:34:12.653Z,17.41
2022-10-15T08:36:45.502Z,17.19
2022-10-15T08:39:14.232Z,16.74
2022-10-15T08:41:50.138Z,16.97
2022-10-15T08:44:27.417Z,17.37
2022-10-15T08:47:00.820Z,17.58
2022-10-15T08:49:45.724Z,17.91
2022-10-15T08:52:26.569Z,17.20
2022-10-15T08:54:58.186Z,17.41
2022-10-15T08:57:43.278Z,17.64
2022-10-15T09:00:20.536Z,18.03
2022-10-15T09:03:03.197Z,16.95
2022-10-15T09:05:53.390Z,17.21
2022-10-15T09:08:30.930Z,17.81
2022-10-15T09:11:04.187Z,17.36
2022-10-15T09:13:40.856Z,17.72
2022-10-15T09:16:17.265Z,18.28
2022-10-15T09:18:52.216Z,18.46
2022-10-15T09:21:26.355Z,18.94
2022-10-15T09:24:00.891Z,18.69
2022-10-15T09:26:51.238Z,18.96
2022-10-15T09:29:28.507Z,18.17
2022-10-15T09:32:08.548Z,18.28
2022-10-15T09:34:44.734Z,18.45
2022-10-15T09:37:25.901Z,18.77
2022-10-15T09:40:32.153Z,18.26
2022-10-15T09:43:05.400Z,18.11
2022-10-15T09:45:38.036Z,18.25
2022-10-15T09:48:19.665Z,18.48
2022-10-15T09:50:58.997Z,18.33
2022-10-15T09:53:47.035Z,18.90
2022-10-15T09:56:19.881Z,18.34
2022-10-15T09:58:54.052Z,18.76
2022-10-15T10:01:26.996Z,18.51
2022-10-15T10:04:13.497Z,19.33
2022-10-15T10:06:47.436Z,19.27
2022-10-15T10:09:22.690Z,18.59
2022-10-15T10:11:54.780Z,18.70
2022-10-15T10:14:32.775Z,19.10
2022-10-15T10:17:17.793Z,18.56
2022-10-15T10:20:03.542Z,19.25
2022-10-15T10:22:32.432Z,19.17
2022-10-15T10:25:36.439Z,18.84
2022-10-15T10:28:20.754Z,18.90
2022-10-15T10:31:04.742Z,18.50
2022-10-15T10:33:38.673Z,18.95
2022-10-15T10:36:19.721Z,19.01
2022-10-15T10:38:59.788Z,19.40
2022-10-15T10:41:51.391Z,18.63
2022-10-15T10:44:29.410Z,19.13
2022-10-15T10:47:20.305Z,19.06
2022-10-15T10:49:54.385Z,19.05
2022-10-15T10:52:29.071Z,19.02
2022-10-15T10:55:03.804Z,18.91
2022-10-15T10:57:45.322Z,18.84
2022-10-15T11:00:19.639Z,19.34
2022-10-15T11:02:49.002Z,19.03
2022-10-15T11:05:27.832Z,18.74
2022-10-15T11:08:10.061Z,18.89
2022-10-15T11:10:47.963Z,18.85
2022-10-15T11:13:44.548Z,18.33
2022-10-15T11:16:20.731Z,18.86
2022-10-15T11:19:13.662Z,18.80
2022-10-15T11:22:05.642Z,19.05
2022-10-15T11:24:49.099Z,18.84
2022-10-15T11:27:54.453Z,18.84
2022-10-15T11:30:44.705Z,18.72
2022-10-15T11:33:33.065Z,19.35
2022-10-15T11:36:23.255Z,19.12
2022-10-15T11:39:05.030Z,19.21
2022-10-15T11:41:45.736Z,19.08
2022-10-15T11:44:39.506Z,19.02
2022-10-15T11:47:28.612Z,18.91
2022-10-15T11:50:16.094Z,18.85
2022-10-15T11:53:03.736Z,19.07
2022-10-15T11:55:42.347Z,19.33
2022-10-15T11:58:30.422Z,19.00
2022-10-15T12:01:06.758Z,19.14
2022-10-15T12:03:47.142Z,19.56
2022-10-15T12:06:21.386Z,18.80
2022-10-15T12:08:51.746Z,18.56
2022-10-15T12:11:41.725Z,19.00
2022-10-15T12:14:23.620Z,19.40
2022-10-15T12:17:04.936Z,19.66
2022-10-15T12:19:43.130Z,18.94
2022-10-15T12:22:14.734Z,19.55
2022-10-15T12:24:57.992Z,19.53
2022-10-15T12:27:36.216Z,19.23
2022-10-15T12:30:34.611Z,19.21
2022-10-15T12:33:05.220Z,19.35
2022-10-15T12:35:40.478Z,19.27
2022-10-15T12:38:29.708Z,19.57
2022-10-15T12:41:06.735Z,19.20
2022-10-15T12:43:40.520Z,19.04
2022-10-15T12:46:13.324Z,19.19
2022-10-15T12:48:45.347Z,18.92
2022-10-15T12:51:45.900Z,19.32
2022-10-15T12:54:41.361Z,19.11
2022-10-15T12:57:54.653Z,19.43
2022-10-15T13:00:43.775Z,19.47
2022-10-15T13:03:36.558Z,19.28
2022-10-15T13:06:36.042Z,19.94
2022-10-15T13:09:31.659Z,19.47
2022-10-15T13:12:03.318Z,20.06
2022-10-15T13:14:47.708Z,19.72
2022-10-15T13:17:19.569Z,20.26
2022-10-15T13:19:55.690Z,20.37
2022-10-15T13:22:29.053Z,20.38
2022-10-15T13:24:59.411Z,19.93
2022-10-15T13:27:33.248Z,20.35
2022-10-15T13:30:05.799Z,20.10
2022-10-15T13:32:53.377Z,20.42
2022-10-15T13:35:32.487Z,20.51
2022-10-15T13:38:04.652Z,20.86
2022-10-15T13:40:35.035Z,20.73
2022-10-15T13:43:06.420Z,20.61
2022-10-15T13:45:37.339Z,20.83
2022-10-15T13:48:12.926Z,21.14
2022-10-15T13:50:42.583Z,21.31
2022-10-15T13:53:19.255Z,21.03
2022-10-15T13:55:52.284Z,20.72
2022-10-15T13:58:27.573Z,21.04
2022-10-15T14:01:01.693Z,21.37
2022-10-15T14:03:31.941Z,21.29
2022-10-15T14:06:12.976Z,20.75
2022-10-15T14:08:41.682Z,21.33
2022-10-15T14:11:15.671Z,21.02
2022-10-15T14:13:48.400Z,21.20
2022-10-15T14:16:22.961Z,21.20
2022-10-15T14:18:55.057Z,21.68
2022-10-15T14:21:29.077Z,21.46
2022-10-15T14:24:07.466Z,21.17
2022-10-15T14:26:39.243Z,21.29
2022-10-15T14:29:17.484Z,21.08
2022-10-15T14:31:50.775Z,21.28
2022-10-15T14:34:39.954Z,20.61
2022-10-15T14:37:32.037Z,21.20
2022-10-15T14:40:19.510Z,21.27
2022-10-15T14:43:03.687Z,20.90
2022-10-15T14:45:44.075Z,20.69
2022-10-15T14:48:19.994Z,21.44
2022-10-15T14:50:48.543Z,21.16
2022-10-15T14:53:23.207Z,21.04
2022-10-15T14:55:57.767Z,20.59
2022-10-15T14:58:31.334Z,20.63
2022-10-15T15:01:02.857Z,20.74
2022-10-15T15:03:39.243Z,20.97
2022-10-15T15:06:08.755Z,20.31
2022-10-15T15:08:37.871Z,20.58
2022-10-15T15:11:13.393Z,20.42
2022-10-15T15:13:46.094Z,20.13
2022-10-15T15:16:17.207Z,20.78
2022-10-15T15:18:46.575Z,20.46
2022-10-15T15:21:18.675Z,20.29
2022-10-15T15:23:49.582Z,20.37
2022-10-15T15:26:19.334Z,20.21
2022-10-15T15:28:50.777Z,20.49
2022-10-15T15:31:20.230Z,20.84
2022-10-15T15:33:48.853Z,20.21
2022-10-15T15:36:20.980Z,19.81
2022-10-15T15:38:58.545Z,20.14
2022-10-15T15:41:27.225Z,20.27
2022-10-15T15:44:00.328Z,19.93
2022-10-15T15:46:28.794Z,20.29
2022-10-15T15:48:59.022Z,20.27
2022-10-15T15:51:32.503Z,20.24
2022-10-15T15:54:06.217Z,19.93
2022-10-15T15:56:36.570Z,19.39
2022-10-15T15:59:07.626Z,19.82
2022-10-15T16:01:36.789Z,19.94
2022-10-15T16:04:09.022Z,19.91
2022-10-15T16:06:39.257Z,19.70
2022-10-15T16:09:08.371Z,19.74
2022-10-15T16:11:40.158Z,19.60
2022-10-15T16:14:10.220Z,19.00
2022-10-15T16:16:39.103Z,18.77
2022-10-15T16:19:08.606Z,19.02
2022-10-15T16:21:38.829Z,18.91
2022-10-15T16:24:08.225Z,18.84
2022-10-15T16:26:36.706Z,18.91
2022-10-15T16:29:06.531Z,18.89
2022-10-15T16:31:37.563Z,18.71
2022-10-15T16:34:06.689Z,18.54
2022-10-15T16:36:36.474Z,18.20
2022-10-15T16:39:06.005Z,18.42
2022-10-15T16:41:36.184Z,18.57
2022-10-15T16:44:04.896Z,18.19
2022-10-15T16:46:38.957Z,18.38
2022-10-15T16:49:07.843Z,18.41
2022-10-15T16:51:38.592Z,17.97
2022-10-15T16:54:16.832Z,18.17
2022-10-15T16:56:53.919Z,18.03
2022-10-15T16:59:22.778Z,18.26
2022-10-15T17:01:52.901Z,18.19
2022-10-15T17:04:21.351Z,17.47
2022-10-15T17:06:50.719Z,17.85
2022-10-15T17:09:20.830Z,17.73
2022-10-15T17:11:50.612Z,17.63
2022-10-15T17:14:20.788Z,17.50
2022-10-15T17:16:53.206Z,17.72
2022-10-15T17:19:30.459Z,18.11
2022-10-15T17:22:09.419Z,17.60
2022-10-15T17:24:43.935Z,17.38
2022-10-15T17:27:14.834Z,17.53
2022-10-15T17:29:45.915Z,17.56
2022-10-15T17:32:16.437Z,17.45
2022-10-15T17:34:44.923Z,17.01
2022-10-15T17:37:15.945Z,17.64
2022-10-15T17:39:44.921Z,17.29
2022-10-15T17:42:16.052Z,17.58
2022-10-15T17:44:50.980Z,16.99
2022-10-15T17:47:22.934Z,17.22
2022-10-15T17:49:56.075Z,17.36
2022-10-15T17:52:30.036Z,17.03
2022-10-15T17:55:01.407Z,16.89
2022-10-15T17:57:33.583Z,16.78
2022-10-15T18:00:05.615Z,16.93
2022-10-15T18:02:40.749Z,16.97
2022-10-15T18:05:11.083Z,17.20
2022-10-15T18:07:42.187Z,17.29
2022-10-15T18:10:15.383Z,17.19
2022-10-15T18:12:44.840Z,16.80
2022-10-15T18:15:14.993Z,17.07
2022-10-15T18:17:47.324Z,17.17
2022-10-15T18:20:16.583Z,17.20
2022-10-15T18:22:46.739Z,17.16
2022-10-15T18:25:17.271Z,17.11
2022-10-15T18:27:47.442Z,17.10
2022-10-15T18:30:17.360Z,17.18
2022-10-15T18:32:49.274Z,17.81
2022-10-15T18:35:20.850Z,17.53
2022-10-15T18:37:57.658Z,17.72
2022-10-15T18:40:27.993Z,17.33
2022-10-15T18:42:57.713Z,17.25
2022-10-15T18:45:27.510Z,17.73
2022-10-15T18:47:59.666Z,17.68
2022-10-15T18:50:30.879Z,17.84
2022-10-15T18:53:03.985Z,17.93
2022-10-15T18:55:33.977Z,17.58
2022-10-15T18:58:06.855Z,17.85
2022-10-15T19:00:39.379Z,17.41
2022-10-15T19:03:13.147Z,17.54
2022-10-15T19:05:43.697Z,17.27
2022-10-15T19:08:20.565Z,17.37
2022-10-15T19:10:51.484Z,17.44
2022-10-15T19:13:23.704Z,17.43
2022-10-15T19:15:58.160Z,17.42
2022-10-15T19:18:37.992Z,17.49
2022-10-15T19:23:57.606Z,17.45
2022-10-15T19:26:27.212Z,17.82
2022-10-15T19:29:01.799Z,17.82
2022-10-15T19:31:35.308Z,17.31
2022-10-15T19:34:08.484Z,17.85
2022-10-15T19:36:42.386Z,17.58
2022-10-15T19:39:19.153Z,17.39
2022-10-15T19:41:50.516Z,17.69
2022-10-15T19:44:26.477Z,17.35
2022-10-15T19:46:59.599Z,17.80
2022-10-15T19:49:31.418Z,17.51
2022-10-15T19:52:01.470Z,17.17
2022-10-15T19:54:30.874Z,17.21
2022-10-15T19:57:01.410Z,17.04
2022-10-15T19:59:31.286Z,17.43
2022-10-15T20:02:01.563Z,17.23
2022-10-15T20:04:32.199Z,17.37
2022-10-15T20:07:01.496Z,17.75
2022-10-15T20:09:30.945Z,17.35
2022-10-15T20:12:01.508Z,17.32
2022-10-15T20:14:32.620Z,17.01
2022-10-15T20:17:02.111Z,17.55
2022-10-15T20:19:32.671Z,17.21
2022-10-15T20:22:01.089Z,17.60
2022-10-15T20:24:29.939Z,17.43
2022-10-15T20:27:00.815Z,17.31
2022-10-15T20:29:30.015Z,17.46
2022-10-15T20:32:10.658Z,17.44
2022-10-15T20:34:50.790Z,17.35
2022-10-15T20:37:19.547Z,17.35
2022-10-15T20:39:52.942Z,17.50
2022-10-15T20:42:22.151Z,16.78
2022-10-15T20:44:53.176Z,17.27
2022-10-15T20:47:22.301Z,17.18
2022-10-15T20:49:55.014Z,16.95
2022-10-15T20:52:24.673Z,16.99
2022-10-15T20:54:55.358Z,16.99
2022-10-15T20:57:27.554Z,17.26
2022-10-15T20:59:56.340Z,17.32
2022-10-15T21:02:25.982Z,17.04
2022-10-15T21:04:58.428Z,17.18
2022-10-15T21:07:27.614Z,17.06
2022-10-15T21:09:56.086Z,17.42
2022-10-15T21:12:25.713Z,17.24
2022-10-15T21:14:56.699Z,17.23
2022-10-15T21:17:27.367Z,17.14
2022-10-15T21:19:59.062Z,16.86
2022-10-15T21:22:27.980Z,17.07
2022-10-15T21:24:58.694Z,17.33
2022-10-15T21:27:27.834Z,17.26
2022-10-15T21:29:57.721Z,17.20
2022-10-15T21:32:27.343Z,17.46
2022-10-15T21:34:57.680Z,17.07
2022-10-15T21:37:26.791Z,16.93
2022-10-15T21:39:55.609Z,17.16
2022-10-15T21:42:25.854Z,17.14
2022-10-15T21:45:07.309Z,17.18
2022-10-15T21:47:40.014Z,17.31
2022-10-15T21:50:12.409Z,17.17
2022-10-15T21:52:40.976Z,17.23
2022-10-15T21:55:11.136Z,16.93
2022-10-15T21:57:40.293Z,17.25
2022-10-15T22:00:18.063Z,17.15
2022-10-15T22:02:53.732Z,17.20
2022-10-15T22:05:24.000Z,17.15
2022-10-15T22:07:53.294Z,17.22
2022-10-15T22:10:23.420Z,17.28
2022-10-15T22:12:54.114Z,17.12
2022-10-15T22:15:22.757Z,17.11
2022-10-15T22:17:51.773Z,16.80
2022-10-15T22:20:23.708Z,16.92
2022-10-15T22:22:54.987Z,16.80
2022-10-15T22:25:23.944Z,17.01
2022-10-15T22:27:53.176Z,17.14
2022-10-15T22:30:23.262Z,16.98
2022-10-15T22:32:51.857Z,17.14
2022-10-15T22:35:21.570Z,16.66
2022-10-15T22:37:51.796Z,17.15
2022-10-15T22:40:23.250Z,16.73
2022-10-15T22:42:52.168Z,16.83
2022-10-15T22:45:20.933Z,16.88
2022-10-15T22:47:49.802Z,16.59
2022-10-15T22:50:19.198Z,16.84
2022-10-15T22:52:49.137Z,16.60
2022-10-15T22:55:18.213Z,16.84
2022-10-15T22:57:52.426Z,16.71
2022-10-15T23:00:23.658Z,16.73
2022-10-15T23:02:52.601Z,16.82
2022-10-15T23:05:21.139Z,16.77
2022-10-15T23:07:50.043Z,16.45
2022-10-15T23:10:19.691Z,16.85
2022-10-15T23:12:49.701Z,17.02
2022-10-15T23:15:23.591Z,16.95
2022-10-15T23:17:54.873Z,16.80
2022-10-15T23:20:24.271Z,17.08
2022-10-15T23:22:52.933Z,17.03
2022-10-15T23:25:21.384Z,16.82
2022-10-15T23:27:52.217Z,17.06
2022-10-15T23:30:25.096Z,17.06
2022-10-15T23:32:56.866Z,17.20
2022-10-15T23:35:26.296Z,17.20
2022-10-15T23:37:55.558Z,17.33
2022-10-15T23:40:25.374Z,17.04
2022-10-15T23:42:56.114Z,17.00
2022-10-15T23:45:24.586Z,16.79
2022-10-15T23:47:59.131Z,17.10
2022-10-15T23:50:34.474Z,17.37
2022-10-15T23:53:03.632Z,17.31
2022-10-15T23:55:33.620Z,16.65
2022-10-15T23:58:03.874Z,16.69
